sensor_id;sensor_type;location;lat;lon;timestamp;P1;durP1;ratioP1;P2;durP2;ratioP2
62798;SDS011;48842;51.046;13.796;2023-12-20T00:00:51;2.53;;;2.43;;
62798;SDS011;48842;51.046;13.796;2023-12-20T00:03:16;3.23;;;3.03;;
62798;SDS011;48842;51.046;13.796;2023-12-20T00:05:42;3.30;;;2.87;;
62798;SDS011;48842;51.046;13.796;2023-12-20T00:08:07;2.50;;;2.40;;
62798;SDS011;48842;51.046;13.796;2023-12-20T00:10:32;3.27;;;3.07;;
62798;SDS011;48842;51.046;13.796;2023-12-20T00:12:57;3.27;;;3.10;;
62798;SDS011;48842;51.046;13.796;2023-12-20T00:15:22;3.57;;;3.37;;
62798;SDS011;48842;51.046;13.796;2023-12-20T00:17:48;3.60;;;3.40;;
62798;SDS011;48842;51.046;13.796;2023-12-20T00:20:13;2.40;;;2.30;;
62798;SDS011;48842;51.046;13.796;2023-12-20T00:22:38;2.80;;;2.60;;
62798;SDS011;48842;51.046;13.796;2023-12-20T00:25:04;2.83;;;2.63;;
62798;SDS011;48842;51.046;13.796;2023-12-20T00:27:29;2.80;;;2.70;;
62798;SDS011;48842;51.046;13.796;2023-12-20T00:29:54;3.03;;;2.83;;
62798;SDS011;48842;51.046;13.796;2023-12-20T00:32:20;2.60;;;2.50;;
62798;SDS011;48842;51.046;13.796;2023-12-20T00:34:45;2.50;;;2.40;;
62798;SDS011;48842;51.046;13.796;2023-12-20T00:37:10;2.37;;;2.20;;
62798;SDS011;48842;51.046;13.796;2023-12-20T00:39:36;2.47;;;2.37;;
62798;SDS011;48842;51.046;13.796;2023-12-20T00:42:01;2.40;;;2.30;;
62798;SDS011;48842;51.046;13.796;2023-12-20T00:44:26;2.70;;;2.60;;
62798;SDS011;48842;51.046;13.796;2023-12-20T00:46:51;2.13;;;2.00;;
62798;SDS011;48842;51.046;13.796;2023-12-20T00:49:17;1.73;;;1.63;;
62798;SDS011;48842;51.046;13.796;2023-12-20T00:51:42;2.47;;;2.27;;
62798;SDS011;48842;51.046;13.796;2023-12-20T00:54:07;1.90;;;1.80;;
62798;SDS011;48842;51.046;13.796;2023-12-20T00:56:32;2.30;;;2.20;;
62798;SDS011;48842;51.046;13.796;2023-12-20T00:58:58;1.87;;;1.77;;
62798;SDS011;48842;51.046;13.796;2023-12-20T01:01:23;2.00;;;1.90;;
62798;SDS011;48842;51.046;13.796;2023-12-20T01:03:48;1.67;;;1.57;;
62798;SDS011;48842;51.046;13.796;2023-12-20T01:06:16;1.83;;;1.73;;
62798;SDS011;48842;51.046;13.796;2023-12-20T01:08:41;1.80;;;1.70;;
62798;SDS011;48842;51.046;13.796;2023-12-20T01:11:06;3.90;;;1.77;;
62798;SDS011;48842;51.046;13.796;2023-12-20T01:13:31;1.40;;;1.40;;
62798;SDS011;48842;51.046;13.796;2023-12-20T01:15:57;1.80;;;1.70;;
62798;SDS011;48842;51.046;13.796;2023-12-20T01:18:22;1.50;;;1.50;;
62798;SDS011;48842;51.046;13.796;2023-12-20T01:20:47;1.77;;;1.67;;
62798;SDS011;48842;51.046;13.796;2023-12-20T01:23:12;1.47;;;1.47;;
62798;SDS011;48842;51.046;13.796;2023-12-20T01:25:38;1.73;;;1.63;;
62798;SDS011;48842;51.046;13.796;2023-12-20T01:28:04;1.50;;;1.40;;
62798;SDS011;48842;51.046;13.796;2023-12-20T01:30:29;1.63;;;1.40;;
62798;SDS011;48842;51.046;13.796;2023-12-20T01:32:54;2.10;;;2.00;;
62798;SDS011;48842;51.046;13.796;2023-12-20T01:35:19;1.40;;;1.37;;
62798;SDS011;48842;51.046;13.796;2023-12-20T01:37:45;1.43;;;1.43;;
62798;SDS011;48842;51.046;13.796;2023-12-20T01:40:10;1.27;;;1.17;;
62798;SDS011;48842;51.046;13.796;2023-12-20T01:42:35;1.90;;;1.80;;
62798;SDS011;48842;51.046;13.796;2023-12-20T01:45:01;4.73;;;1.20;;
62798;SDS011;48842;51.046;13.796;2023-12-20T01:47:27;1.17;;;1.17;;
62798;SDS011;48842;51.046;13.796;2023-12-20T01:49:52;1.07;;;1.07;;
62798;SDS011;48842;51.046;13.796;2023-12-20T01:52:18;1.57;;;1.47;;
62798;SDS011;48842;51.046;13.796;2023-12-20T01:54:44;1.50;;;1.40;;
62798;SDS011;48842;51.046;13.796;2023-12-20T01:57:10;0.93;;;0.93;;
62798;SDS011;48842;51.046;13.796;2023-12-20T01:59:35;1.30;;;1.23;;
62798;SDS011;48842;51.046;13.796;2023-12-20T02:02:01;0.93;;;0.93;;
62798;SDS011;48842;51.046;13.796;2023-12-20T02:04:28;1.10;;;1.10;;
62798;SDS011;48842;51.046;13.796;2023-12-20T02:06:54;1.00;;;1.00;;
62798;SDS011;48842;51.046;13.796;2023-12-20T02:09:21;1.10;;;1.00;;
62798;SDS011;48842;51.046;13.796;2023-12-20T02:11:47;1.07;;;1.07;;
62798;SDS011;48842;51.046;13.796;2023-12-20T02:14:13;1.20;;;1.20;;
62798;SDS011;48842;51.046;13.796;2023-12-20T02:16:38;0.80;;;0.80;;
62798;SDS011;48842;51.046;13.796;2023-12-20T02:19:04;1.13;;;1.13;;
62798;SDS011;48842;51.046;13.796;2023-12-20T02:21:37;1.23;;;1.23;;
62798;SDS011;48842;51.046;13.796;2023-12-20T02:24:02;1.60;;;1.10;;
62798;SDS011;48842;51.046;13.796;2023-12-20T02:26:28;0.90;;;0.90;;
62798;SDS011;48842;51.046;13.796;2023-12-20T02:28:53;1.00;;;1.00;;
62798;SDS011;48842;51.046;13.796;2023-12-20T02:31:23;1.03;;;1.00;;
62798;SDS011;48842;51.046;13.796;2023-12-20T02:33:48;3.90;;;0.80;;
62798;SDS011;48842;51.046;13.796;2023-12-20T02:36:13;1.00;;;1.00;;
62798;SDS011;48842;51.046;13.796;2023-12-20T02:38:39;0.90;;;0.90;;
62798;SDS011;48842;51.046;13.796;2023-12-20T02:41:04;0.70;;;0.70;;
62798;SDS011;48842;51.046;13.796;2023-12-20T02:43:29;0.70;;;0.70;;
62798;SDS011;48842;51.046;13.796;2023-12-20T02:45:54;0.80;;;0.80;;
62798;SDS011;48842;51.046;13.796;2023-12-20T02:48:20;0.70;;;0.70;;
62798;SDS011;48842;51.046;13.796;2023-12-20T02:50:45;0.70;;;0.70;;
62798;SDS011;48842;51.046;13.796;2023-12-20T02:53:13;0.60;;;0.60;;
62798;SDS011;48842;51.046;13.796;2023-12-20T02:55:38;0.50;;;0.50;;
62798;SDS011;48842;51.046;13.796;2023-12-20T02:58:03;0.80;;;0.80;;
62798;SDS011;48842;51.046;13.796;2023-12-20T03:00:28;0.60;;;0.60;;
62798;SDS011;48842;51.046;13.796;2023-12-20T03:02:54;0.60;;;0.60;;
62798;SDS011;48842;51.046;13.796;2023-12-20T03:05:19;0.60;;;0.60;;
62798;SDS011;48842;51.046;13.796;2023-12-20T03:07:45;0.70;;;0.70;;
62798;SDS011;48842;51.046;13.796;2023-12-20T03:10:10;0.50;;;0.50;;
62798;SDS011;48842;51.046;13.796;2023-12-20T03:12:36;0.63;;;0.63;;
62798;SDS011;48842;51.046;13.796;2023-12-20T03:15:01;0.80;;;0.80;;
62798;SDS011;48842;51.046;13.796;2023-12-20T03:17:26;0.60;;;0.60;;
62798;SDS011;48842;51.046;13.796;2023-12-20T03:19:51;0.70;;;0.60;;
62798;SDS011;48842;51.046;13.796;2023-12-20T03:22:17;0.80;;;0.80;;
62798;SDS011;48842;51.046;13.796;2023-12-20T03:24:42;0.80;;;0.80;;
62798;SDS011;48842;51.046;13.796;2023-12-20T03:27:07;0.70;;;0.70;;
62798;SDS011;48842;51.046;13.796;2023-12-20T03:29:32;0.60;;;0.60;;
62798;SDS011;48842;51.046;13.796;2023-12-20T03:31:57;0.70;;;0.70;;
62798;SDS011;48842;51.046;13.796;2023-12-20T03:34:23;0.60;;;0.60;;
62798;SDS011;48842;51.046;13.796;2023-12-20T03:36:48;0.60;;;0.60;;
62798;SDS011;48842;51.046;13.796;2023-12-20T03:39:13;0.57;;;0.57;;
62798;SDS011;48842;51.046;13.796;2023-12-20T03:41:39;0.63;;;0.63;;
62798;SDS011;48842;51.046;13.796;2023-12-20T03:44:04;0.50;;;0.50;;
62798;SDS011;48842;51.046;13.796;2023-12-20T03:46:29;0.53;;;0.53;;
62798;SDS011;48842;51.046;13.796;2023-12-20T03:48:54;0.80;;;0.80;;
62798;SDS011;48842;51.046;13.796;2023-12-20T03:51:20;0.60;;;0.60;;
62798;SDS011;48842;51.046;13.796;2023-12-20T03:53:45;0.60;;;0.60;;
62798;SDS011;48842;51.046;13.796;2023-12-20T03:56:10;1.00;;;0.90;;
62798;SDS011;48842;51.046;13.796;2023-12-20T03:58:36;0.77;;;0.77;;
62798;SDS011;48842;51.046;13.796;2023-12-20T04:01:01;0.70;;;0.70;;
62798;SDS011;48842;51.046;13.796;2023-12-20T04:03:27;1.53;;;0.60;;
62798;SDS011;48842;51.046;13.796;2023-12-20T04:05:53;1.00;;;1.00;;
62798;SDS011;48842;51.046;13.796;2023-12-20T04:08:18;0.70;;;0.50;;
62798;SDS011;48842;51.046;13.796;2023-12-20T04:10:43;0.90;;;0.90;;
62798;SDS011;48842;51.046;13.796;2023-12-20T04:13:09;0.63;;;0.63;;
62798;SDS011;48842;51.046;13.796;2023-12-20T04:15:34;0.60;;;0.60;;
62798;SDS011;48842;51.046;13.796;2023-12-20T04:17:59;0.70;;;0.70;;
62798;SDS011;48842;51.046;13.796;2023-12-20T04:20:24;0.60;;;0.60;;
62798;SDS011;48842;51.046;13.796;2023-12-20T04:22:50;0.67;;;0.67;;
62798;SDS011;48842;51.046;13.796;2023-12-20T04:25:15;0.70;;;0.70;;
62798;SDS011;48842;51.046;13.796;2023-12-20T04:27:40;1.07;;;0.80;;
62798;SDS011;48842;51.046;13.796;2023-12-20T04:30:06;0.67;;;0.67;;
62798;SDS011;48842;51.046;13.796;2023-12-20T04:32:32;0.80;;;0.80;;
62798;SDS011;48842;51.046;13.796;2023-12-20T04:34:57;0.60;;;0.60;;
62798;SDS011;48842;51.046;13.796;2023-12-20T04:37:23;0.60;;;0.60;;
62798;SDS011;48842;51.046;13.796;2023-12-20T04:39:48;0.70;;;0.70;;
62798;SDS011;48842;51.046;13.796;2023-12-20T04:42:13;0.60;;;0.60;;
62798;SDS011;48842;51.046;13.796;2023-12-20T04:44:38;0.60;;;0.60;;
62798;SDS011;48842;51.046;13.796;2023-12-20T04:47:04;0.60;;;0.60;;
62798;SDS011;48842;51.046;13.796;2023-12-20T04:49:29;0.53;;;0.53;;
62798;SDS011;48842;51.046;13.796;2023-12-20T04:51:54;0.67;;;0.67;;
62798;SDS011;48842;51.046;13.796;2023-12-20T04:54:20;0.90;;;0.70;;
62798;SDS011;48842;51.046;13.796;2023-12-20T04:56:45;0.70;;;0.70;;
62798;SDS011;48842;51.046;13.796;2023-12-20T04:59:11;1.70;;;0.80;;
62798;SDS011;48842;51.046;13.796;2023-12-20T05:01:36;0.60;;;0.60;;
62798;SDS011;48842;51.046;13.796;2023-12-20T05:04:01;0.70;;;0.70;;
62798;SDS011;48842;51.046;13.796;2023-12-20T05:06:27;0.63;;;0.63;;
62798;SDS011;48842;51.046;13.796;2023-12-20T05:08:52;0.80;;;0.80;;
62798;SDS011;48842;51.046;13.796;2023-12-20T05:11:17;0.77;;;0.77;;
62798;SDS011;48842;51.046;13.796;2023-12-20T05:13:42;2.13;;;0.70;;
62798;SDS011;48842;51.046;13.796;2023-12-20T05:16:07;0.80;;;0.80;;
62798;SDS011;48842;51.046;13.796;2023-12-20T05:18:34;0.63;;;0.63;;
62798;SDS011;48842;51.046;13.796;2023-12-20T05:20:59;0.87;;;0.87;;
62798;SDS011;48842;51.046;13.796;2023-12-20T05:23:24;1.83;;;1.00;;
62798;SDS011;48842;51.046;13.796;2023-12-20T05:25:49;0.70;;;0.70;;
62798;SDS011;48842;51.046;13.796;2023-12-20T05:28:15;1.43;;;1.17;;
62798;SDS011;48842;51.046;13.796;2023-12-20T05:30:40;0.60;;;0.60;;
62798;SDS011;48842;51.046;13.796;2023-12-20T05:33:05;1.07;;;0.70;;
62798;SDS011;48842;51.046;13.796;2023-12-20T05:35:31;0.97;;;0.90;;
62798;SDS011;48842;51.046;13.796;2023-12-20T05:37:56;0.70;;;0.70;;
62798;SDS011;48842;51.046;13.796;2023-12-20T05:40:21;0.80;;;0.50;;
62798;SDS011;48842;51.046;13.796;2023-12-20T05:42:46;0.70;;;0.70;;
62798;SDS011;48842;51.046;13.796;2023-12-20T05:45:12;0.90;;;0.60;;
62798;SDS011;48842;51.046;13.796;2023-12-20T05:47:37;0.77;;;0.77;;
62798;SDS011;48842;51.046;13.796;2023-12-20T05:50:03;4.73;;;0.50;;
62798;SDS011;48842;51.046;13.796;2023-12-20T05:52:30;0.70;;;0.70;;
62798;SDS011;48842;51.046;13.796;2023-12-20T05:54:55;0.67;;;0.67;;
62798;SDS011;48842;51.046;13.796;2023-12-20T05:57:22;0.50;;;0.50;;
62798;SDS011;48842;51.046;13.796;2023-12-20T05:59:48;0.70;;;0.70;;
62798;SDS011;48842;51.046;13.796;2023-12-20T06:02:13;0.70;;;0.70;;
62798;SDS011;48842;51.046;13.796;2023-12-20T06:04:41;1.70;;;0.73;;
62798;SDS011;48842;51.046;13.796;2023-12-20T06:07:07;0.57;;;0.57;;
62798;SDS011;48842;51.046;13.796;2023-12-20T06:09:32;0.70;;;0.70;;
62798;SDS011;48842;51.046;13.796;2023-12-20T06:11:57;0.53;;;0.53;;
62798;SDS011;48842;51.046;13.796;2023-12-20T06:14:22;0.70;;;0.60;;
62798;SDS011;48842;51.046;13.796;2023-12-20T06:16:48;4.00;;;0.80;;
62798;SDS011;48842;51.046;13.796;2023-12-20T06:19:13;0.70;;;0.70;;
62798;SDS011;48842;51.046;13.796;2023-12-20T06:21:38;0.80;;;0.80;;
62798;SDS011;48842;51.046;13.796;2023-12-20T06:24:04;0.80;;;0.80;;
62798;SDS011;48842;51.046;13.796;2023-12-20T06:26:29;0.60;;;0.60;;
62798;SDS011;48842;51.046;13.796;2023-12-20T06:28:55;1.00;;;0.80;;
62798;SDS011;48842;51.046;13.796;2023-12-20T06:31:20;1.03;;;0.87;;
62798;SDS011;48842;51.046;13.796;2023-12-20T06:33:45;1.03;;;0.87;;
62798;SDS011;48842;51.046;13.796;2023-12-20T06:36:11;0.80;;;0.80;;
62798;SDS011;48842;51.046;13.796;2023-12-20T06:38:38;1.10;;;1.00;;
62798;SDS011;48842;51.046;13.796;2023-12-20T06:41:03;1.00;;;1.00;;
62798;SDS011;48842;51.046;13.796;2023-12-20T06:43:28;1.17;;;1.17;;
62798;SDS011;48842;51.046;13.796;2023-12-20T06:45:55;1.10;;;1.10;;
62798;SDS011;48842;51.046;13.796;2023-12-20T06:48:20;1.00;;;1.00;;
62798;SDS011;48842;51.046;13.796;2023-12-20T06:50:45;1.20;;;1.20;;
62798;SDS011;48842;51.046;13.796;2023-12-20T06:53:11;1.30;;;1.30;;
62798;SDS011;48842;51.046;13.796;2023-12-20T06:55:36;1.30;;;1.30;;
62798;SDS011;48842;51.046;13.796;2023-12-20T06:58:02;1.43;;;1.30;;
62798;SDS011;48842;51.046;13.796;2023-12-20T07:00:28;1.60;;;1.50;;
62798;SDS011;48842;51.046;13.796;2023-12-20T07:02:53;1.30;;;1.30;;
62798;SDS011;48842;51.046;13.796;2023-12-20T07:05:19;1.40;;;1.30;;
62798;SDS011;48842;51.046;13.796;2023-12-20T07:07:45;1.50;;;1.40;;
62798;SDS011;48842;51.046;13.796;2023-12-20T07:10:11;1.20;;;1.20;;
62798;SDS011;48842;51.046;13.796;2023-12-20T07:12:36;1.30;;;1.30;;
62798;SDS011;48842;51.046;13.796;2023-12-20T07:15:02;1.27;;;1.27;;
62798;SDS011;48842;51.046;13.796;2023-12-20T07:17:27;1.47;;;1.47;;
62798;SDS011;48842;51.046;13.796;2023-12-20T07:19:52;4.20;;;1.57;;
62798;SDS011;48842;51.046;13.796;2023-12-20T07:22:18;2.30;;;1.70;;
62798;SDS011;48842;51.046;13.796;2023-12-20T07:24:43;1.70;;;1.60;;
62798;SDS011;48842;51.046;13.796;2023-12-20T07:27:08;3.00;;;2.00;;
62798;SDS011;48842;51.046;13.796;2023-12-20T07:29:34;1.47;;;1.47;;
62798;SDS011;48842;51.046;13.796;2023-12-20T07:31:59;1.77;;;1.67;;
62798;SDS011;48842;51.046;13.796;2023-12-20T07:34:24;1.70;;;1.47;;
62798;SDS011;48842;51.046;13.796;2023-12-20T07:36:49;2.40;;;2.27;;
62798;SDS011;48842;51.046;13.796;2023-12-20T07:39:14;4.80;;;2.00;;
62798;SDS011;48842;51.046;13.796;2023-12-20T07:41:40;1.50;;;1.50;;
62798;SDS011;48842;51.046;13.796;2023-12-20T07:44:06;1.80;;;1.70;;
62798;SDS011;48842;51.046;13.796;2023-12-20T07:46:31;3.90;;;1.90;;
62798;SDS011;48842;51.046;13.796;2023-12-20T07:48:56;1.60;;;1.50;;
62798;SDS011;48842;51.046;13.796;2023-12-20T07:51:22;2.20;;;2.10;;
62798;SDS011;48842;51.046;13.796;2023-12-20T07:53:47;2.00;;;1.90;;
62798;SDS011;48842;51.046;13.796;2023-12-20T07:56:18;2.20;;;2.00;;
62798;SDS011;48842;51.046;13.796;2023-12-20T07:58:44;2.20;;;2.10;;
62798;SDS011;48842;51.046;13.796;2023-12-20T08:01:10;2.00;;;1.90;;
62798;SDS011;48842;51.046;13.796;2023-12-20T08:03:36;2.23;;;2.10;;
62798;SDS011;48842;51.046;13.796;2023-12-20T08:06:01;2.00;;;2.00;;
62798;SDS011;48842;51.046;13.796;2023-12-20T08:08:27;2.20;;;2.10;;
62798;SDS011;48842;51.046;13.796;2023-12-20T08:10:53;2.00;;;1.80;;
62798;SDS011;48842;51.046;13.796;2023-12-20T08:13:18;6.90;;;2.20;;
62798;SDS011;48842;51.046;13.796;2023-12-20T08:15:43;2.53;;;1.87;;
62798;SDS011;48842;51.046;13.796;2023-12-20T08:18:09;1.87;;;1.77;;
62798;SDS011;48842;51.046;13.796;2023-12-20T08:20:34;1.53;;;1.40;;
62798;SDS011;48842;51.046;13.796;2023-12-20T08:22:59;3.67;;;1.67;;
62798;SDS011;48842;51.046;13.796;2023-12-20T08:25:24;1.97;;;1.87;;
62798;SDS011;48842;51.046;13.796;2023-12-20T08:27:49;2.33;;;1.80;;
62798;SDS011;48842;51.046;13.796;2023-12-20T08:30:15;1.87;;;1.73;;
62798;SDS011;48842;51.046;13.796;2023-12-20T08:32:42;4.10;;;1.87;;
62798;SDS011;48842;51.046;13.796;2023-12-20T08:35:07;3.60;;;2.13;;
62798;SDS011;48842;51.046;13.796;2023-12-20T08:37:33;1.97;;;1.37;;
62798;SDS011;48842;51.046;13.796;2023-12-20T08:39:59;1.50;;;1.30;;
62798;SDS011;48842;51.046;13.796;2023-12-20T08:42:24;2.50;;;1.40;;
62798;SDS011;48842;51.046;13.796;2023-12-20T08:44:55;1.40;;;1.30;;
62798;SDS011;48842;51.046;13.796;2023-12-20T08:47:21;1.60;;;1.30;;
62798;SDS011;48842;51.046;13.796;2023-12-20T08:49:46;1.63;;;1.50;;
62798;SDS011;48842;51.046;13.796;2023-12-20T08:52:11;1.67;;;1.40;;
62798;SDS011;48842;51.046;13.796;2023-12-20T08:54:36;3.10;;;1.47;;
62798;SDS011;48842;51.046;13.796;2023-12-20T08:57:01;2.20;;;1.30;;
62798;SDS011;48842;51.046;13.796;2023-12-20T08:59:27;2.67;;;1.60;;
62798;SDS011;48842;51.046;13.796;2023-12-20T09:01:52;2.13;;;1.47;;
62798;SDS011;48842;51.046;13.796;2023-12-20T09:04:19;2.70;;;1.60;;
62798;SDS011;48842;51.046;13.796;2023-12-20T09:06:45;5.00;;;1.30;;
62798;SDS011;48842;51.046;13.796;2023-12-20T09:09:10;3.20;;;1.43;;
62798;SDS011;48842;51.046;13.796;2023-12-20T09:11:38;3.50;;;1.40;;
62798;SDS011;48842;51.046;13.796;2023-12-20T09:14:03;1.20;;;0.93;;
62798;SDS011;48842;51.046;13.796;2023-12-20T09:16:29;2.33;;;1.00;;
62798;SDS011;48842;51.046;13.796;2023-12-20T09:18:54;1.80;;;1.23;;
62798;SDS011;48842;51.046;13.796;2023-12-20T09:21:19;3.90;;;1.33;;
62798;SDS011;48842;51.046;13.796;2023-12-20T09:23:47;2.90;;;1.10;;
62798;SDS011;48842;51.046;13.796;2023-12-20T09:26:13;1.30;;;1.20;;
62798;SDS011;48842;51.046;13.796;2023-12-20T09:28:38;2.93;;;1.53;;
62798;SDS011;48842;51.046;13.796;2023-12-20T09:31:05;3.53;;;0.90;;
62798;SDS011;48842;51.046;13.796;2023-12-20T09:33:31;2.60;;;1.20;;
62798;SDS011;48842;51.046;13.796;2023-12-20T09:35:57;2.70;;;1.00;;
62798;SDS011;48842;51.046;13.796;2023-12-20T09:38:22;1.80;;;1.10;;
62798;SDS011;48842;51.046;13.796;2023-12-20T09:40:47;7.10;;;1.10;;
62798;SDS011;48842;51.046;13.796;2023-12-20T09:43:16;1.77;;;0.80;;
62798;SDS011;48842;51.046;13.796;2023-12-20T09:45:45;1.63;;;1.20;;
62798;SDS011;48842;51.046;13.796;2023-12-20T09:48:11;2.30;;;1.27;;
62798;SDS011;48842;51.046;13.796;2023-12-20T09:50:39;5.40;;;1.33;;
62798;SDS011;48842;51.046;13.796;2023-12-20T09:53:05;3.17;;;1.50;;
62798;SDS011;48842;51.046;13.796;2023-12-20T09:55:34;4.30;;;1.27;;
62798;SDS011;48842;51.046;13.796;2023-12-20T09:58:01;2.33;;;1.27;;
62798;SDS011;48842;51.046;13.796;2023-12-20T10:00:26;3.03;;;1.83;;
62798;SDS011;48842;51.046;13.796;2023-12-20T10:02:59;3.67;;;1.30;;
62798;SDS011;48842;51.046;13.796;2023-12-20T10:05:29;2.17;;;1.20;;
62798;SDS011;48842;51.046;13.796;2023-12-20T10:07:55;2.77;;;1.13;;
62798;SDS011;48842;51.046;13.796;2023-12-20T10:10:20;1.43;;;1.20;;
62798;SDS011;48842;51.046;13.796;2023-12-20T10:13:00;2.10;;;1.20;;
62798;SDS011;48842;51.046;13.796;2023-12-20T10:15:33;2.80;;;1.13;;
62798;SDS011;48842;51.046;13.796;2023-12-20T10:17:59;6.77;;;1.53;;
62798;SDS011;48842;51.046;13.796;2023-12-20T10:20:26;1.40;;;1.23;;
62798;SDS011;48842;51.046;13.796;2023-12-20T10:22:53;3.57;;;1.83;;
62798;SDS011;48842;51.046;13.796;2023-12-20T10:25:20;1.63;;;1.10;;
62798;SDS011;48842;51.046;13.796;2023-12-20T10:27:46;2.30;;;1.10;;
62798;SDS011;48842;51.046;13.796;2023-12-20T10:30:11;7.90;;;1.30;;
62798;SDS011;48842;51.046;13.796;2023-12-20T10:32:37;2.20;;;1.07;;
62798;SDS011;48842;51.046;13.796;2023-12-20T10:35:02;3.73;;;1.00;;
62798;SDS011;48842;51.046;13.796;2023-12-20T10:37:28;1.70;;;1.13;;
62798;SDS011;48842;51.046;13.796;2023-12-20T10:39:55;2.80;;;1.17;;
62798;SDS011;48842;51.046;13.796;2023-12-20T10:42:27;1.33;;;1.00;;
62798;SDS011;48842;51.046;13.796;2023-12-20T10:44:54;4.10;;;1.50;;
62798;SDS011;48842;51.046;13.796;2023-12-20T10:47:20;3.97;;;1.20;;
62798;SDS011;48842;51.046;13.796;2023-12-20T10:49:46;1.93;;;1.10;;
62798;SDS011;48842;51.046;13.796;2023-12-20T10:52:12;2.30;;;1.27;;
62798;SDS011;48842;51.046;13.796;2023-12-20T10:54:41;2.40;;;1.47;;
62798;SDS011;48842;51.046;13.796;2023-12-20T10:57:07;2.50;;;1.13;;
62798;SDS011;48842;51.046;13.796;2023-12-20T10:59:38;1.67;;;1.13;;
62798;SDS011;48842;51.046;13.796;2023-12-20T11:02:04;1.37;;;1.07;;
62798;SDS011;48842;51.046;13.796;2023-12-20T11:07:55;3.33;;;1.30;;
62798;SDS011;48842;51.046;13.796;2023-12-20T11:10:33;1.53;;;1.07;;
62798;SDS011;48842;51.046;13.796;2023-12-20T11:16:19;3.00;;;1.93;;
62798;SDS011;48842;51.046;13.796;2023-12-20T11:18:44;6.03;;;2.90;;
62798;SDS011;48842;51.046;13.796;2023-12-20T11:21:12;4.67;;;3.40;;
62798;SDS011;48842;51.046;13.796;2023-12-20T11:23:39;3.20;;;2.03;;
62798;SDS011;48842;51.046;13.796;2023-12-20T11:26:07;2.10;;;1.27;;
62798;SDS011;48842;51.046;13.796;2023-12-20T11:28:32;5.37;;;3.40;;
62798;SDS011;48842;51.046;13.796;2023-12-20T11:30:58;3.00;;;1.60;;
62798;SDS011;48842;51.046;13.796;2023-12-20T11:33:35;1.37;;;1.27;;
62798;SDS011;48842;51.046;13.796;2023-12-20T11:36:02;2.83;;;1.30;;
62798;SDS011;48842;51.046;13.796;2023-12-20T11:38:35;2.70;;;1.37;;
62798;SDS011;48842;51.046;13.796;2023-12-20T11:41:02;2.47;;;2.17;;
62798;SDS011;48842;51.046;13.796;2023-12-20T11:43:31;3.50;;;1.77;;
62798;SDS011;48842;51.046;13.796;2023-12-20T11:46:05;4.97;;;1.80;;
62798;SDS011;48842;51.046;13.796;2023-12-20T11:48:34;3.30;;;1.83;;
62798;SDS011;48842;51.046;13.796;2023-12-20T11:51:00;2.80;;;1.37;;
62798;SDS011;48842;51.046;13.796;2023-12-20T11:53:26;2.20;;;1.37;;
62798;SDS011;48842;51.046;13.796;2023-12-20T11:55:51;7.50;;;1.20;;
62798;SDS011;48842;51.046;13.796;2023-12-20T11:58:17;5.43;;;1.73;;
62798;SDS011;48842;51.046;13.796;2023-12-20T12:00:42;4.90;;;1.53;;
62798;SDS011;48842;51.046;13.796;2023-12-20T12:03:08;3.00;;;1.40;;
62798;SDS011;48842;51.046;13.796;2023-12-20T12:05:34;1.73;;;1.30;;
62798;SDS011;48842;51.046;13.796;2023-12-20T12:07:59;4.63;;;1.97;;
62798;SDS011;48842;51.046;13.796;2023-12-20T12:10:25;1.30;;;1.20;;
62798;SDS011;48842;51.046;13.796;2023-12-20T12:12:50;3.73;;;2.00;;
62798;SDS011;48842;51.046;13.796;2023-12-20T12:15:15;1.90;;;1.30;;
62798;SDS011;48842;51.046;13.796;2023-12-20T12:17:41;4.93;;;1.27;;
62798;SDS011;48842;51.046;13.796;2023-12-20T12:20:06;4.87;;;2.00;;
62798;SDS011;48842;51.046;13.796;2023-12-20T12:22:35;2.90;;;1.47;;
62798;SDS011;48842;51.046;13.796;2023-12-20T12:25:11;4.00;;;1.40;;
62798;SDS011;48842;51.046;13.796;2023-12-20T12:27:40;2.50;;;1.33;;
62798;SDS011;48842;51.046;13.796;2023-12-20T12:30:06;3.43;;;1.70;;
62798;SDS011;48842;51.046;13.796;2023-12-20T12:32:34;5.40;;;1.93;;
62798;SDS011;48842;51.046;13.796;2023-12-20T12:35:00;4.17;;;1.60;;
62798;SDS011;48842;51.046;13.796;2023-12-20T12:37:28;4.00;;;1.70;;
62798;SDS011;48842;51.046;13.796;2023-12-20T12:39:54;3.70;;;1.27;;
62798;SDS011;48842;51.046;13.796;2023-12-20T12:42:20;5.70;;;1.10;;
62798;SDS011;48842;51.046;13.796;2023-12-20T12:44:46;1.30;;;1.00;;
62798;SDS011;48842;51.046;13.796;2023-12-20T12:47:11;5.07;;;1.40;;
62798;SDS011;48842;51.046;13.796;2023-12-20T12:49:36;15.37;;;1.40;;
62798;SDS011;48842;51.046;13.796;2023-12-20T12:52:03;4.33;;;1.47;;
62798;SDS011;48842;51.046;13.796;2023-12-20T12:54:28;6.33;;;2.50;;
62798;SDS011;48842;51.046;13.796;2023-12-20T12:56:54;4.47;;;1.50;;
62798;SDS011;48842;51.046;13.796;2023-12-20T12:59:19;5.33;;;1.37;;
62798;SDS011;48842;51.046;13.796;2023-12-20T13:01:44;10.50;;;1.70;;
62798;SDS011;48842;51.046;13.796;2023-12-20T13:04:09;1.53;;;1.43;;
62798;SDS011;48842;51.046;13.796;2023-12-20T13:06:37;4.70;;;1.67;;
62798;SDS011;48842;51.046;13.796;2023-12-20T13:09:03;3.70;;;1.33;;
62798;SDS011;48842;51.046;13.796;2023-12-20T13:11:29;4.57;;;1.30;;
62798;SDS011;48842;51.046;13.796;2023-12-20T13:13:56;3.37;;;1.30;;
62798;SDS011;48842;51.046;13.796;2023-12-20T13:16:22;2.97;;;1.60;;
62798;SDS011;48842;51.046;13.796;2023-12-20T13:18:47;3.90;;;1.43;;
62798;SDS011;48842;51.046;13.796;2023-12-20T13:21:13;3.43;;;1.17;;
62798;SDS011;48842;51.046;13.796;2023-12-20T13:23:38;3.13;;;1.70;;
62798;SDS011;48842;51.046;13.796;2023-12-20T13:26:03;3.47;;;1.30;;
62798;SDS011;48842;51.046;13.796;2023-12-20T13:28:29;4.00;;;1.10;;
62798;SDS011;48842;51.046;13.796;2023-12-20T13:30:54;4.60;;;1.60;;
62798;SDS011;48842;51.046;13.796;2023-12-20T13:33:19;3.13;;;0.90;;
62798;SDS011;48842;51.046;13.796;2023-12-20T13:35:44;4.50;;;1.97;;
62798;SDS011;48842;51.046;13.796;2023-12-20T13:38:09;3.00;;;1.40;;
62798;SDS011;48842;51.046;13.796;2023-12-20T13:40:37;9.00;;;1.03;;
62798;SDS011;48842;51.046;13.796;2023-12-20T13:43:02;8.00;;;1.93;;
62798;SDS011;48842;51.046;13.796;2023-12-20T13:45:28;4.60;;;1.43;;
62798;SDS011;48842;51.046;13.796;2023-12-20T13:47:53;7.13;;;2.00;;
62798;SDS011;48842;51.046;13.796;2023-12-20T13:50:18;4.63;;;1.50;;
62798;SDS011;48842;51.046;13.796;2023-12-20T13:52:43;4.60;;;1.40;;
62798;SDS011;48842;51.046;13.796;2023-12-20T13:55:09;4.73;;;1.40;;
62798;SDS011;48842;51.046;13.796;2023-12-20T13:57:34;5.70;;;1.70;;
62798;SDS011;48842;51.046;13.796;2023-12-20T14:00:02;4.83;;;1.70;;
62798;SDS011;48842;51.046;13.796;2023-12-20T14:02:28;3.30;;;1.90;;
62798;SDS011;48842;51.046;13.796;2023-12-20T14:04:53;2.40;;;1.47;;
62798;SDS011;48842;51.046;13.796;2023-12-20T14:07:19;6.57;;;1.13;;
62798;SDS011;48842;51.046;13.796;2023-12-20T14:09:44;2.77;;;1.47;;
62798;SDS011;48842;51.046;13.796;2023-12-20T14:12:13;5.47;;;1.37;;
62798;SDS011;48842;51.046;13.796;2023-12-20T14:14:39;1.97;;;1.43;;
62798;SDS011;48842;51.046;13.796;2023-12-20T14:17:04;1.57;;;1.07;;
62798;SDS011;48842;51.046;13.796;2023-12-20T14:19:31;4.10;;;1.30;;
62798;SDS011;48842;51.046;13.796;2023-12-20T14:21:57;1.83;;;1.10;;
62798;SDS011;48842;51.046;13.796;2023-12-20T14:24:26;4.60;;;1.17;;
62798;SDS011;48842;51.046;13.796;2023-12-20T14:26:51;2.93;;;1.30;;
62798;SDS011;48842;51.046;13.796;2023-12-20T14:29:16;4.03;;;1.50;;
62798;SDS011;48842;51.046;13.796;2023-12-20T14:31:42;1.80;;;0.97;;